createdAt,value
2019-06-27T00:00:13.978Z,17.50
2019-06-27T00:02:42.923Z,17.50
2019-06-27T00:05:12.021Z,17.50
2019-06-27T00:07:41.075Z,17.50
2019-06-27T00:10:10.941Z,17.50
2019-06-27T00:12:39.810Z,17.50
2019-06-27T00:15:09.043Z,17.50
2019-06-27T00:17:37.886Z,17.50
2019-06-27T00:20:06.940Z,17.50
2019-06-27T00:22:35.951Z,17.50
2019-06-27T00:25:05.109Z,17.50
2019-06-27T00:27:34.057Z,17.50
2019-06-27T00:30:03.015Z,17.40
2019-06-27T00:32:31.953Z,17.40
2019-06-27T00:35:00.890Z,17.30
2019-06-27T00:37:29.923Z,17.40
2019-06-27T00:39:58.841Z,17.30
2019-06-27T00:42:27.872Z,17.30
2019-06-27T00:44:56.804Z,17.40
2019-06-27T00:47:25.743Z,17.40
2019-06-27T00:49:54.621Z,17.40
2019-06-27T00:52:26.361Z,17.40
2019-06-27T00:54:55.361Z,17.50
2019-06-27T00:57:24.453Z,17.50
2019-06-27T00:59:53.448Z,17.40
2019-06-27T01:02:22.373Z,17.40
2019-06-27T01:04:51.325Z,17.40
2019-06-27T01:07:20.274Z,17.40
2019-06-27T01:09:49.193Z,17.40
2019-06-27T01:12:18.114Z,17.50
2019-06-27T01:14:47.068Z,17.50
2019-06-27T01:17:15.908Z,17.40
2019-06-27T01:19:44.829Z,17.40
2019-06-27T01:22:13.766Z,17.40
2019-06-27T01:24:42.680Z,17.40
2019-06-27T01:27:11.565Z,17.40
2019-06-27T01:29:40.412Z,17.30
2019-06-27T01:32:09.404Z,17.20
2019-06-27T01:34:38.281Z,17.30
2019-06-27T01:37:07.145Z,17.20
2019-06-27T01:39:36.064Z,17.20
2019-06-27T01:42:05.099Z,17.20
2019-06-27T01:45:02.313Z,17.10
2019-06-27T01:47:31.431Z,17.10
2019-06-27T01:50:00.384Z,17.10
2019-06-27T01:52:29.385Z,17.10
2019-06-27T01:54:58.277Z,17.10
2019-06-27T01:57:27.212Z,17.00
2019-06-27T01:59:56.141Z,16.90
2019-06-27T02:02:25.164Z,16.90
2019-06-27T02:04:54.013Z,17.00
2019-06-27T02:07:23.018Z,17.00
2019-06-27T02:09:52.125Z,16.80
2019-06-27T02:12:21.057Z,16.80
2019-06-27T02:14:49.973Z,16.90
2019-06-27T02:17:18.972Z,16.80
2019-06-27T02:19:47.960Z,16.80
2019-06-27T02:22:16.885Z,16.80
2019-06-27T02:24:45.812Z,16.80
2019-06-27T02:27:14.814Z,16.70
2019-06-27T02:29:43.737Z,16.70
2019-06-27T02:32:12.600Z,16.70
2019-06-27T02:34:41.626Z,16.70
2019-06-27T02:37:10.553Z,16.70
2019-06-27T02:39:39.512Z,16.70
2019-06-27T02:42:08.425Z,16.70
2019-06-27T02:44:37.353Z,16.70
2019-06-27T02:47:06.282Z,16.70
2019-06-27T02:49:35.262Z,16.70
2019-06-27T02:52:04.191Z,16.60
2019-06-27T02:54:33.111Z,16.60
2019-06-27T02:57:01.972Z,16.50
2019-06-27T02:59:30.834Z,16.50
2019-06-27T03:01:59.754Z,16.50
2019-06-27T03:04:28.707Z,16.50
2019-06-27T03:06:57.907Z,16.50
2019-06-27T03:09:26.970Z,16.40
2019-06-27T03:11:59.977Z,16.40
2019-06-27T03:14:26.553Z,16.40
2019-06-27T03:16:55.402Z,16.30
2019-06-27T03:19:24.410Z,16.30
2019-06-27T03:21:53.410Z,16.30
2019-06-27T03:24:22.280Z,16.30
2019-06-27T03:26:51.276Z,16.30
2019-06-27T03:29:20.786Z,16.40
2019-06-27T03:31:49.932Z,16.30
2019-06-27T03:34:18.970Z,16.40
2019-06-27T03:36:47.855Z,16.40
2019-06-27T03:39:16.862Z,16.40
2019-06-27T03:41:45.859Z,16.40
2019-06-27T03:44:14.731Z,16.40
2019-06-27T03:46:43.607Z,16.40
2019-06-27T03:49:12.625Z,16.40
2019-06-27T03:51:41.563Z,16.40
2019-06-27T03:54:10.501Z,16.30
2019-06-27T03:56:39.423Z,16.30
2019-06-27T03:59:12.930Z,16.30
2019-06-27T04:01:39.170Z,16.30
2019-06-27T04:04:08.198Z,16.30
2019-06-27T04:06:37.062Z,16.40
2019-06-27T04:09:06.397Z,16.30
2019-06-27T04:11:35.326Z,16.30
2019-06-27T04:14:04.455Z,16.30
2019-06-27T04:16:33.387Z,16.20
2019-06-27T04:19:02.397Z,16.20
2019-06-27T04:21:31.407Z,16.10
2019-06-27T04:24:00.425Z,16.10
2019-06-27T04:26:29.423Z,16.10
2019-06-27T04:28:58.517Z,16.00
2019-06-27T04:31:27.517Z,16.00
2019-06-27T04:33:56.378Z,16.00
2019-06-27T04:36:25.325Z,16.00
2019-06-27T04:38:54.373Z,16.00
2019-06-27T04:41:23.229Z,16.00
2019-06-27T04:43:52.437Z,16.10
2019-06-27T04:46:21.378Z,16.10
2019-06-27T04:48:50.252Z,16.10
2019-06-27T04:51:19.178Z,16.10
2019-06-27T04:53:48.184Z,16.10
2019-06-27T04:56:17.105Z,16.10
2019-06-27T04:58:45.974Z,16.10
2019-06-27T05:01:14.887Z,16.10
2019-06-27T05:03:43.765Z,16.10
2019-06-27T05:06:12.694Z,16.10
2019-06-27T05:08:41.635Z,16.10
2019-06-27T05:11:10.569Z,16.10
2019-06-27T05:13:39.574Z,16.10
2019-06-27T05:16:08.590Z,16.10
2019-06-27T05:18:37.594Z,16.10
2019-06-27T05:21:06.459Z,16.20
2019-06-27T05:23:35.461Z,16.20
2019-06-27T05:26:04.426Z,16.20
2019-06-27T05:28:33.365Z,16.30
2019-06-27T05:31:02.292Z,16.20
2019-06-27T05:33:31.262Z,16.30
2019-06-27T05:36:02.295Z,16.20
2019-06-27T05:38:30.691Z,16.20
2019-06-27T05:40:59.717Z,16.20
2019-06-27T05:43:28.646Z,16.20
2019-06-27T05:45:57.525Z,16.30
2019-06-27T05:48:26.400Z,16.30
2019-06-27T05:50:55.374Z,16.40
2019-06-27T05:53:24.257Z,16.30
2019-06-27T05:55:53.288Z,16.40
2019-06-27T05:58:22.423Z,16.40
2019-06-27T06:00:51.779Z,16.40
2019-06-27T06:03:20.700Z,16.50
2019-06-27T06:05:49.571Z,16.60
2019-06-27T06:08:18.509Z,16.60
2019-06-27T06:10:47.513Z,16.70
2019-06-27T06:13:16.526Z,16.70
2019-06-27T06:15:45.462Z,16.70
2019-06-27T06:18:14.383Z,16.70
2019-06-27T06:20:43.257Z,16.70
2019-06-27T06:23:12.245Z,16.70
2019-06-27T06:25:41.214Z,16.70
2019-06-27T06:28:10.074Z,16.70
2019-06-27T06:30:44.537Z,16.70
2019-06-27T06:33:09.709Z,16.70
2019-06-27T06:35:38.645Z,16.80
2019-06-27T06:38:07.641Z,16.80
2019-06-27T06:40:36.625Z,16.80
2019-06-27T06:43:05.661Z,16.80
2019-06-27T06:45:34.697Z,16.90
2019-06-27T06:48:03.720Z,17.00
2019-06-27T06:50:32.655Z,17.00
2019-06-27T06:53:01.523Z,16.90
2019-06-27T06:55:30.586Z,17.00
2019-06-27T06:57:59.514Z,17.00
2019-06-27T07:00:28.518Z,17.10
2019-06-27T07:02:57.463Z,17.10
2019-06-27T07:05:26.566Z,17.10
2019-06-27T07:07:55.517Z,17.10
2019-06-27T07:10:26.378Z,17.20
2019-06-27T07:12:55.445Z,17.20
2019-06-27T07:15:24.459Z,17.30
2019-06-27T07:17:53.463Z,17.30
2019-06-27T07:20:22.477Z,17.30
2019-06-27T07:22:51.419Z,17.30
2019-06-27T07:25:20.873Z,17.40
2019-06-27T07:27:50.246Z,17.30
2019-06-27T13:12:56.257Z,25.00
2019-06-27T14:25:57.374Z,24.80
2019-06-27T14:57:22.560Z,24.60
2019-06-27T15:40:35.441Z,22.60
2019-06-27T15:50:00.029Z,22.50
2019-06-27T15:52:29.033Z,22.30
2019-06-27T15:54:57.879Z,22.30
2019-06-27T15:57:26.838Z,22.10
2019-06-27T15:59:55.712Z,21.90
2019-06-27T16:02:27.661Z,21.90
2019-06-27T16:04:56.588Z,22.00
2019-06-27T16:07:25.519Z,22.00
2019-06-27T16:09:54.501Z,21.90
2019-06-27T16:12:23.489Z,21.80
2019-06-27T16:14:52.473Z,21.70
2019-06-27T16:17:21.432Z,21.60
2019-06-27T16:19:50.365Z,21.60
2019-06-27T16:22:19.286Z,21.50
2019-06-27T16:24:48.326Z,21.50
2019-06-27T16:27:17.267Z,21.30
2019-06-27T16:29:46.123Z,21.30
2019-06-27T16:32:15.159Z,21.00
2019-06-27T16:34:44.009Z,20.90
2019-06-27T16:37:12.974Z,21.00
2019-06-27T16:39:42.017Z,21.00
2019-06-27T16:42:11.025Z,21.10
2019-06-27T16:44:39.986Z,21.10
2019-06-27T16:47:09.016Z,21.00
2019-06-27T16:49:37.934Z,21.00
2019-06-27T16:52:06.925Z,21.00
2019-06-27T16:54:35.880Z,20.70
2019-06-27T17:04:01.352Z,20.50
2019-06-27T17:06:41.241Z,20.30
2019-06-27T17:09:01.056Z,20.30
2019-06-27T17:11:30.047Z,20.40
2019-06-27T17:13:59.025Z,20.40
2019-06-27T17:16:27.979Z,20.20
2019-06-27T17:18:56.865Z,20.10
2019-06-27T17:21:25.865Z,20.00
2019-06-27T17:23:54.721Z,20.10
2019-06-27T17:26:23.717Z,20.00
2019-06-27T17:28:52.593Z,20.10
2019-06-27T17:31:21.605Z,20.20
2019-06-27T17:33:50.469Z,20.10
2019-06-27T17:36:19.495Z,20.00
2019-06-27T17:38:48.429Z,20.00
2019-06-27T17:41:17.348Z,20.00
2019-06-27T17:43:46.213Z,20.00
2019-06-27T17:46:15.139Z,20.00
2019-06-27T17:48:44.087Z,20.10
2019-06-27T17:51:13.013Z,20.00
2019-06-27T17:53:42.828Z,19.90
2019-06-27T17:56:12.037Z,19.90
2019-06-27T17:58:41.061Z,19.70
2019-06-27T18:01:09.986Z,19.50
2019-06-27T18:03:38.912Z,19.40
2019-06-27T18:06:07.863Z,19.40
2019-06-27T18:08:36.809Z,19.40
2019-06-27T18:11:05.817Z,19.40
2019-06-27T18:13:34.748Z,19.40
2019-06-27T18:16:03.697Z,19.30
2019-06-27T18:18:32.640Z,19.30
2019-06-27T18:21:01.505Z,19.40
2019-06-27T18:23:30.369Z,19.40
2019-06-27T18:25:59.245Z,19.20
2019-06-27T18:28:28.103Z,19.10
2019-06-27T18:30:56.952Z,19.00
2019-06-27T18:33:25.899Z,19.00
2019-06-27T18:35:54.809Z,18.80
2019-06-27T18:38:23.826Z,18.90
2019-06-27T18:40:52.823Z,18.90
2019-06-27T18:43:21.741Z,18.90
2019-06-27T18:45:50.693Z,18.90
2019-06-27T18:48:19.621Z,18.90
2019-06-27T18:50:48.444Z,18.90
2019-06-27T18:53:17.306Z,18.80
2019-06-27T18:55:46.435Z,18.70
2019-06-27T18:58:15.381Z,18.60
2019-06-27T19:00:44.404Z,18.60
2019-06-27T19:03:13.313Z,18.60
2019-06-27T19:05:42.334Z,18.60
2019-06-27T19:08:11.355Z,18.60
2019-06-27T19:10:40.237Z,18.40
2019-06-27T19:13:09.489Z,18.40
2019-06-27T19:15:38.481Z,18.40
2019-06-27T19:18:26.563Z,18.50
2019-06-27T19:20:55.894Z,18.40
2019-06-27T19:23:50.220Z,18.40
2019-06-27T19:26:19.248Z,18.30
2019-06-27T19:28:48.100Z,18.30
2019-06-27T19:31:17.106Z,18.30
2019-06-27T19:33:46.037Z,18.30
2019-06-27T19:36:15.081Z,18.30
2019-06-27T19:38:44.005Z,18.20
2019-06-27T19:41:12.973Z,18.20
2019-06-27T19:43:42.175Z,18.20
2019-06-27T19:46:11.102Z,18.10
2019-06-27T19:48:40.125Z,18.10
2019-06-27T19:51:09.152Z,18.10
2019-06-27T19:53:38.022Z,18.10
2019-06-27T19:56:07.022Z,18.10
2019-06-27T19:58:35.893Z,18.10
2019-06-27T20:01:04.974Z,18.10
2019-06-27T20:03:33.905Z,18.10
2019-06-27T20:06:02.857Z,18.00
2019-06-27T20:08:34.201Z,18.00
2019-06-27T20:11:03.286Z,18.00
2019-06-27T20:13:32.169Z,18.00
2019-06-27T20:16:01.209Z,17.90
2019-06-27T20:18:30.060Z,17.90
2019-06-27T20:20:58.979Z,17.80
2019-06-27T20:23:27.873Z,17.80
2019-06-27T20:25:56.884Z,17.70
2019-06-27T20:28:25.825Z,17.60
2019-06-27T20:30:54.747Z,17.60
2019-06-27T20:33:23.668Z,17.60
2019-06-27T20:35:52.713Z,17.60
2019-06-27T20:38:34.422Z,17.50
2019-06-27T20:40:52.317Z,17.50
2019-06-27T20:43:21.278Z,17.40
2019-06-27T20:45:51.661Z,17.40
2019-06-27T20:48:20.690Z,17.40
2019-06-27T20:50:49.682Z,17.30
2019-06-27T20:53:18.718Z,17.30
2019-06-27T20:55:47.747Z,17.30
2019-06-27T20:58:16.645Z,17.30
2019-06-27T21:00:45.596Z,17.20
2019-06-27T21:03:14.512Z,17.20
2019-06-27T21:05:43.453Z,17.10
2019-06-27T21:08:12.413Z,17.10
2019-06-27T21:10:41.420Z,17.10
2019-06-27T21:13:10.353Z,17.00
2019-06-27T21:15:39.291Z,17.00
2019-06-27T21:18:08.231Z,17.00
2019-06-27T21:20:37.184Z,17.00
2019-06-27T21:23:06.130Z,17.00
2019-06-27T21:25:35.162Z,17.00
2019-06-27T21:28:04.100Z,17.00
2019-06-27T21:30:33.106Z,17.00
2019-06-27T21:33:04.153Z,16.90
2019-06-27T21:35:33.193Z,17.00
2019-06-27T21:38:02.044Z,17.00
2019-06-27T21:40:31.285Z,17.00
2019-06-27T21:43:00.192Z,16.90
2019-06-27T21:45:29.213Z,16.90
2019-06-27T21:47:58.063Z,16.80
2019-06-27T21:50:27.078Z,16.80
2019-06-27T21:52:56.082Z,16.70
2019-06-27T21:55:25.096Z,16.70
2019-06-27T21:57:53.953Z,16.60
2019-06-27T22:00:23.253Z,16.70
2019-06-27T22:02:52.280Z,16.60
2019-06-27T22:05:21.377Z,16.60
2019-06-27T22:07:53.431Z,16.50
2019-06-27T22:10:21.198Z,16.50
2019-06-27T22:12:50.190Z,16.50
2019-06-27T22:15:19.214Z,16.50
2019-06-27T22:17:48.233Z,16.40
2019-06-27T22:20:17.428Z,16.30
2019-06-27T22:22:46.422Z,16.40
2019-06-27T22:25:15.445Z,16.30
2019-06-27T22:27:44.364Z,16.30
2019-06-27T22:30:14.993Z,16.30
2019-06-27T22:32:44.017Z,16.30
2019-06-27T22:35:13.216Z,16.30
2019-06-27T22:37:59.945Z,16.20
2019-06-27T22:40:46.614Z,16.20
2019-06-27T22:43:33.194Z,16.20
2019-06-27T22:46:19.852Z,16.20
2019-06-27T22:48:48.006Z,16.20
2019-06-27T22:51:39.274Z,16.20
2019-06-27T22:54:09.217Z,16.20
2019-06-27T22:56:38.117Z,16.10
2019-06-27T22:59:06.974Z,16.10
2019-06-27T23:01:35.982Z,16.10
2019-06-27T23:04:04.913Z,16.20
2019-06-27T23:06:33.826Z,16.20
2019-06-27T23:09:02.931Z,16.10
2019-06-27T23:11:31.804Z,16.10
2019-06-27T23:14:00.724Z,16.20
2019-06-27T23:16:29.666Z,16.20
2019-06-27T23:18:58.606Z,16.20
2019-06-27T23:21:27.517Z,16.20
2019-06-27T23:23:56.461Z,16.30
2019-06-27T23:26:25.300Z,16.20
2019-06-27T23:28:54.255Z,16.30
2019-06-27T23:31:23.126Z,16.30
2019-06-27T23:33:52.112Z,16.30
2019-06-27T23:36:21.045Z,16.30
2019-06-27T23:38:49.912Z,16.30
2019-06-27T23:41:18.753Z,16.40
2019-06-27T23:43:47.682Z,16.40
2019-06-27T23:46:34.529Z,16.40
2019-06-27T23:49:03.437Z,16.40
2019-06-27T23:51:32.370Z,16.40
2019-06-27T23:54:01.326Z,16.40
2019-06-27T23:56:30.326Z,16.40
2019-06-27T23:58:59.255Z,16.40
